sensor_id;sensor_type;location;lat;lon;timestamp;temperature;humidity
13798;DHT22;6970;51.340;3.240;2023-05-07T00:00:24;15.50;99.90
13798;DHT22;6970;51.340;3.240;2023-05-07T00:02:55;15.50;99.90
13798;DHT22;6970;51.340;3.240;2023-05-07T00:05:25;15.50;99.90
13798;DHT22;6970;51.340;3.240;2023-05-07T00:07:53;15.50;99.90
13798;DHT22;6970;51.340;3.240;2023-05-07T00:10:22;15.50;99.90
13798;DHT22;6970;51.340;3.240;2023-05-07T00:12:49;15.50;99.90
13798;DHT22;6970;51.340;3.240;2023-05-07T00:15:18;15.60;99.90
13798;DHT22;6970;51.340;3.240;2023-05-07T00:17:49;15.60;99.90
13798;DHT22;6970;51.340;3.240;2023-05-07T00:20:19;15.60;99.90
13798;DHT22;6970;51.340;3.240;2023-05-07T00:22:46;15.60;99.90
13798;DHT22;6970;51.340;3.240;2023-05-07T00:25:13;15.60;99.90
13798;DHT22;6970;51.340;3.240;2023-05-07T00:27:48;15.60;99.90
13798;DHT22;6970;51.340;3.240;2023-05-07T00:30:18;15.50;99.90
13798;DHT22;6970;51.340;3.240;2023-05-07T00:32:45;15.60;99.90
13798;DHT22;6970;51.340;3.240;2023-05-07T00:35:12;15.60;99.90
13798;DHT22;6970;51.340;3.240;2023-05-07T00:37:39;15.60;99.90
13798;DHT22;6970;51.340;3.240;2023-05-07T00:40:07;15.50;99.90
13798;DHT22;6970;51.340;3.240;2023-05-07T00:42:37;15.50;99.90
13798;DHT22;6970;51.340;3.240;2023-05-07T00:45:05;15.50;99.90
13798;DHT22;6970;51.340;3.240;2023-05-07T00:47:34;15.50;99.90
13798;DHT22;6970;51.340;3.240;2023-05-07T00:50:01;15.50;99.90
13798;DHT22;6970;51.340;3.240;2023-05-07T00:52:29;15.50;99.90
13798;DHT22;6970;51.340;3.240;2023-05-07T00:54:57;15.50;99.90
13798;DHT22;6970;51.340;3.240;2023-05-07T00:57:25;15.50;99.90
13798;DHT22;6970;51.340;3.240;2023-05-07T00:59:55;15.50;99.90
13798;DHT22;6970;51.340;3.240;2023-05-07T01:02:22;15.50;99.90
13798;DHT22;6970;51.340;3.240;2023-05-07T01:04:50;15.50;99.90
13798;DHT22;6970;51.340;3.240;2023-05-07T01:07:20;15.50;99.90
13798;DHT22;6970;51.340;3.240;2023-05-07T01:09:47;15.40;99.90
13798;DHT22;6970;51.340;3.240;2023-05-07T01:12:14;15.40;99.90
13798;DHT22;6970;51.340;3.240;2023-05-07T01:14:44;15.40;99.90
13798;DHT22;6970;51.340;3.240;2023-05-07T01:17:11;15.40;99.90
13798;DHT22;6970;51.340;3.240;2023-05-07T01:19:41;15.40;99.90
13798;DHT22;6970;51.340;3.240;2023-05-07T01:22:10;15.50;99.90
13798;DHT22;6970;51.340;3.240;2023-05-07T01:24:41;15.50;99.90
13798;DHT22;6970;51.340;3.240;2023-05-07T01:27:09;15.40;99.90
13798;DHT22;6970;51.340;3.240;2023-05-07T01:29:37;15.40;99.90
13798;DHT22;6970;51.340;3.240;2023-05-07T01:32:05;15.40;99.90
13798;DHT22;6970;51.340;3.240;2023-05-07T01:34:36;15.40;99.90
13798;DHT22;6970;51.340;3.240;2023-05-07T01:37:10;15.40;99.90
13798;DHT22;6970;51.340;3.240;2023-05-07T01:39:40;15.40;99.90
13798;DHT22;6970;51.340;3.240;2023-05-07T01:42:09;15.40;99.90
13798;DHT22;6970;51.340;3.240;2023-05-07T01:44:39;15.30;99.90
13798;DHT22;6970;51.340;3.240;2023-05-07T01:47:09;15.30;99.90
13798;DHT22;6970;51.340;3.240;2023-05-07T01:49:38;15.30;99.90
13798;DHT22;6970;51.340;3.240;2023-05-07T01:52:10;15.20;99.90
13798;DHT22;6970;51.340;3.240;2023-05-07T01:54:40;15.20;99.90
13798;DHT22;6970;51.340;3.240;2023-05-07T01:57:10;15.20;99.90
13798;DHT22;6970;51.340;3.240;2023-05-07T01:59:40;15.20;99.90
13798;DHT22;6970;51.340;3.240;2023-05-07T02:02:09;15.20;99.90
13798;DHT22;6970;51.340;3.240;2023-05-07T02:04:37;15.20;99.90
13798;DHT22;6970;51.340;3.240;2023-05-07T02:07:04;15.20;99.90
13798;DHT22;6970;51.340;3.240;2023-05-07T02:09:32;15.20;99.90
13798;DHT22;6970;51.340;3.240;2023-05-07T02:12:02;15.20;99.90
13798;DHT22;6970;51.340;3.240;2023-05-07T02:14:32;15.20;99.90
13798;DHT22;6970;51.340;3.240;2023-05-07T02:17:00;15.20;99.90
13798;DHT22;6970;51.340;3.240;2023-05-07T02:19:27;15.20;99.90
13798;DHT22;6970;51.340;3.240;2023-05-07T02:21:57;15.20;99.90
13798;DHT22;6970;51.340;3.240;2023-05-07T02:24:30;15.20;99.90
13798;DHT22;6970;51.340;3.240;2023-05-07T02:27:00;15.20;99.90
13798;DHT22;6970;51.340;3.240;2023-05-07T02:29:27;15.20;99.90
13798;DHT22;6970;51.340;3.240;2023-05-07T02:31:57;15.20;99.90
13798;DHT22;6970;51.340;3.240;2023-05-07T02:34:28;15.20;99.90
13798;DHT22;6970;51.340;3.240;2023-05-07T02:36:56;15.10;99.90
13798;DHT22;6970;51.340;3.240;2023-05-07T02:39:25;15.20;99.90
13798;DHT22;6970;51.340;3.240;2023-05-07T02:41:54;15.10;99.90
13798;DHT22;6970;51.340;3.240;2023-05-07T02:44:23;15.10;99.90
13798;DHT22;6970;51.340;3.240;2023-05-07T02:46:56;15.10;99.90
13798;DHT22;6970;51.340;3.240;2023-05-07T02:49:24;15.00;99.90
13798;DHT22;6970;51.340;3.240;2023-05-07T02:51:52;15.00;99.90
13798;DHT22;6970;51.340;3.240;2023-05-07T02:54:20;15.00;99.90
13798;DHT22;6970;51.340;3.240;2023-05-07T02:56:47;14.90;99.90
13798;DHT22;6970;51.340;3.240;2023-05-07T02:59:18;14.90;99.90
13798;DHT22;6970;51.340;3.240;2023-05-07T03:01:48;14.90;99.90
13798;DHT22;6970;51.340;3.240;2023-05-07T03:04:17;14.90;99.90
13798;DHT22;6970;51.340;3.240;2023-05-07T03:06:45;14.90;99.90
13798;DHT22;6970;51.340;3.240;2023-05-07T03:09:14;14.90;99.90
13798;DHT22;6970;51.340;3.240;2023-05-07T03:11:42;14.80;99.90
13798;DHT22;6970;51.340;3.240;2023-05-07T03:14:11;14.90;99.90
13798;DHT22;6970;51.340;3.240;2023-05-07T03:16:40;14.80;99.90
13798;DHT22;6970;51.340;3.240;2023-05-07T03:19:10;14.80;99.90
13798;DHT22;6970;51.340;3.240;2023-05-07T03:21:37;14.80;99.90
13798;DHT22;6970;51.340;3.240;2023-05-07T03:24:06;14.90;99.90
13798;DHT22;6970;51.340;3.240;2023-05-07T03:26:35;14.90;99.90
13798;DHT22;6970;51.340;3.240;2023-05-07T03:29:05;14.90;99.90
13798;DHT22;6970;51.340;3.240;2023-05-07T03:31:35;14.80;99.90
13798;DHT22;6970;51.340;3.240;2023-05-07T03:34:04;14.80;99.90
13798;DHT22;6970;51.340;3.240;2023-05-07T03:36:33;14.80;99.90
13798;DHT22;6970;51.340;3.240;2023-05-07T03:39:02;14.70;99.90
13798;DHT22;6970;51.340;3.240;2023-05-07T03:41:30;14.80;99.90
13798;DHT22;6970;51.340;3.240;2023-05-07T03:43:59;14.70;99.90
13798;DHT22;6970;51.340;3.240;2023-05-07T03:46:26;14.70;99.90
13798;DHT22;6970;51.340;3.240;2023-05-07T03:48:55;14.70;99.90
13798;DHT22;6970;51.340;3.240;2023-05-07T03:51:25;14.70;99.90
13798;DHT22;6970;51.340;3.240;2023-05-07T03:53:55;14.80;99.90
13798;DHT22;6970;51.340;3.240;2023-05-07T03:56:23;14.80;99.90
13798;DHT22;6970;51.340;3.240;2023-05-07T03:58:54;14.80;99.90
13798;DHT22;6970;51.340;3.240;2023-05-07T04:01:23;14.80;99.90
13798;DHT22;6970;51.340;3.240;2023-05-07T04:03:50;14.90;99.90
13798;DHT22;6970;51.340;3.240;2023-05-07T04:06:17;14.90;99.90
13798;DHT22;6970;51.340;3.240;2023-05-07T04:08:44;14.90;99.90
13798;DHT22;6970;51.340;3.240;2023-05-07T04:11:11;14.90;99.90
13798;DHT22;6970;51.340;3.240;2023-05-07T04:13:38;14.90;99.90
13798;DHT22;6970;51.340;3.240;2023-05-07T04:16:09;15.00;99.90
13798;DHT22;6970;51.340;3.240;2023-05-07T04:18:39;14.90;99.90
13798;DHT22;6970;51.340;3.240;2023-05-07T04:21:17;14.90;99.90
13798;DHT22;6970;51.340;3.240;2023-05-07T04:23:47;14.90;99.90
13798;DHT22;6970;51.340;3.240;2023-05-07T04:26:18;14.90;99.90
13798;DHT22;6970;51.340;3.240;2023-05-07T04:28:45;14.90;99.90
13798;DHT22;6970;51.340;3.240;2023-05-07T04:31:14;14.90;99.90
13798;DHT22;6970;51.340;3.240;2023-05-07T04:33:42;14.90;99.90
13798;DHT22;6970;51.340;3.240;2023-05-07T04:36:12;14.90;99.90
13798;DHT22;6970;51.340;3.240;2023-05-07T04:38:41;14.90;99.90
13798;DHT22;6970;51.340;3.240;2023-05-07T04:41:12;14.90;99.90
13798;DHT22;6970;51.340;3.240;2023-05-07T04:43:41;15.00;99.90
13798;DHT22;6970;51.340;3.240;2023-05-07T04:46:15;15.00;99.90
13798;DHT22;6970;51.340;3.240;2023-05-07T04:48:42;15.00;99.90
13798;DHT22;6970;51.340;3.240;2023-05-07T04:51:12;15.00;99.90
13798;DHT22;6970;51.340;3.240;2023-05-07T04:53:42;15.10;99.90
13798;DHT22;6970;51.340;3.240;2023-05-07T04:56:13;15.10;99.90
13798;DHT22;6970;51.340;3.240;2023-05-07T04:58:40;15.10;99.90
13798;DHT22;6970;51.340;3.240;2023-05-07T05:01:09;15.20;99.90
13798;DHT22;6970;51.340;3.240;2023-05-07T05:03:37;15.20;99.90
13798;DHT22;6970;51.340;3.240;2023-05-07T05:06:04;15.20;99.90
13798;DHT22;6970;51.340;3.240;2023-05-07T05:08:33;15.30;99.90
13798;DHT22;6970;51.340;3.240;2023-05-07T05:11:03;15.30;99.90
13798;DHT22;6970;51.340;3.240;2023-05-07T05:13:32;15.30;99.90
13798;DHT22;6970;51.340;3.240;2023-05-07T05:16:03;15.40;99.90
13798;DHT22;6970;51.340;3.240;2023-05-07T05:18:32;15.40;99.90
13798;DHT22;6970;51.340;3.240;2023-05-07T05:20:59;15.40;99.90
13798;DHT22;6970;51.340;3.240;2023-05-07T05:23:28;15.40;99.90
13798;DHT22;6970;51.340;3.240;2023-05-07T05:26:04;15.50;99.90
13798;DHT22;6970;51.340;3.240;2023-05-07T05:28:34;15.60;99.90
13798;DHT22;6970;51.340;3.240;2023-05-07T05:31:05;15.60;99.90
13798;DHT22;6970;51.340;3.240;2023-05-07T05:33:34;15.60;99.90
13798;DHT22;6970;51.340;3.240;2023-05-07T05:36:04;15.60;99.90
13798;DHT22;6970;51.340;3.240;2023-05-07T05:38:33;15.70;99.90
13798;DHT22;6970;51.340;3.240;2023-05-07T05:41:01;15.70;99.90
13798;DHT22;6970;51.340;3.240;2023-05-07T05:43:31;15.80;99.90
13798;DHT22;6970;51.340;3.240;2023-05-07T05:45:58;15.80;99.90
13798;DHT22;6970;51.340;3.240;2023-05-07T05:48:26;15.80;99.90
13798;DHT22;6970;51.340;3.240;2023-05-07T05:50:57;15.90;99.90
13798;DHT22;6970;51.340;3.240;2023-05-07T05:53:25;15.90;99.90
13798;DHT22;6970;51.340;3.240;2023-05-07T05:55:55;16.00;99.90
13798;DHT22;6970;51.340;3.240;2023-05-07T05:58:22;16.00;99.90
13798;DHT22;6970;51.340;3.240;2023-05-07T06:00:52;16.10;99.90
13798;DHT22;6970;51.340;3.240;2023-05-07T06:03:21;16.20;99.90
13798;DHT22;6970;51.340;3.240;2023-05-07T06:05:52;16.30;99.90
13798;DHT22;6970;51.340;3.240;2023-05-07T06:08:20;16.30;99.90
13798;DHT22;6970;51.340;3.240;2023-05-07T06:10:50;16.40;99.90
13798;DHT22;6970;51.340;3.240;2023-05-07T06:13:18;16.50;99.90
13798;DHT22;6970;51.340;3.240;2023-05-07T06:15:49;16.50;99.90
13798;DHT22;6970;51.340;3.240;2023-05-07T06:18:19;16.60;99.90
13798;DHT22;6970;51.340;3.240;2023-05-07T06:20:46;16.70;99.90
13798;DHT22;6970;51.340;3.240;2023-05-07T06:23:15;16.70;99.90
13798;DHT22;6970;51.340;3.240;2023-05-07T06:25:49;16.80;99.90
13798;DHT22;6970;51.340;3.240;2023-05-07T06:28:20;16.80;99.90
13798;DHT22;6970;51.340;3.240;2023-05-07T06:30:47;16.90;99.90
13798;DHT22;6970;51.340;3.240;2023-05-07T06:33:18;17.00;99.90
13798;DHT22;6970;51.340;3.240;2023-05-07T06:35:47;17.00;99.90
13798;DHT22;6970;51.340;3.240;2023-05-07T06:38:17;17.10;99.90
13798;DHT22;6970;51.340;3.240;2023-05-07T06:40:49;17.10;99.90
13798;DHT22;6970;51.340;3.240;2023-05-07T06:43:18;17.20;99.90
13798;DHT22;6970;51.340;3.240;2023-05-07T06:45:46;17.20;99.90
13798;DHT22;6970;51.340;3.240;2023-05-07T06:48:13;17.30;99.90
13798;DHT22;6970;51.340;3.240;2023-05-07T06:50:43;17.40;99.90
13798;DHT22;6970;51.340;3.240;2023-05-07T06:53:13;17.50;99.90
13798;DHT22;6970;51.340;3.240;2023-05-07T06:55:40;17.60;99.90
13798;DHT22;6970;51.340;3.240;2023-05-07T06:58:08;17.70;99.90
13798;DHT22;6970;51.340;3.240;2023-05-07T07:00:37;17.70;99.90
13798;DHT22;6970;51.340;3.240;2023-05-07T07:03:04;17.80;99.90
13798;DHT22;6970;51.340;3.240;2023-05-07T07:05:31;17.90;99.90
13798;DHT22;6970;51.340;3.240;2023-05-07T07:07:58;18.00;99.90
13798;DHT22;6970;51.340;3.240;2023-05-07T07:10:28;18.00;99.90
13798;DHT22;6970;51.340;3.240;2023-05-07T07:12:59;18.10;99.90
13798;DHT22;6970;51.340;3.240;2023-05-07T07:15:29;18.20;99.90
13798;DHT22;6970;51.340;3.240;2023-05-07T07:17:58;18.30;99.90
13798;DHT22;6970;51.340;3.240;2023-05-07T07:20:25;18.40;99.90
13798;DHT22;6970;51.340;3.240;2023-05-07T07:22:55;18.50;99.90
13798;DHT22;6970;51.340;3.240;2023-05-07T07:25:22;18.60;99.90
13798;DHT22;6970;51.340;3.240;2023-05-07T07:27:51;18.60;99.90
13798;DHT22;6970;51.340;3.240;2023-05-07T07:30:20;18.80;99.90
13798;DHT22;6970;51.340;3.240;2023-05-07T07:32:48;18.80;99.90
13798;DHT22;6970;51.340;3.240;2023-05-07T07:35:15;19.00;99.90
13798;DHT22;6970;51.340;3.240;2023-05-07T07:37:42;18.90;99.90
13798;DHT22;6970;51.340;3.240;2023-05-07T07:40:10;19.10;99.90
13798;DHT22;6970;51.340;3.240;2023-05-07T07:42:38;19.30;99.90
13798;DHT22;6970;51.340;3.240;2023-05-07T07:45:07;19.50;99.90
13798;DHT22;6970;51.340;3.240;2023-05-07T07:47:38;19.60;99.90
13798;DHT22;6970;51.340;3.240;2023-05-07T07:50:06;19.80;99.90
13798;DHT22;6970;51.340;3.240;2023-05-07T07:52:39;19.90;99.90
13798;DHT22;6970;51.340;3.240;2023-05-07T07:55:07;20.00;99.90
13798;DHT22;6970;51.340;3.240;2023-05-07T07:57:35;20.00;99.90
13798;DHT22;6970;51.340;3.240;2023-05-07T08:00:04;20.00;99.90
13798;DHT22;6970;51.340;3.240;2023-05-07T08:02:34;20.10;99.90
13798;DHT22;6970;51.340;3.240;2023-05-07T08:05:04;20.10;99.90
13798;DHT22;6970;51.340;3.240;2023-05-07T08:07:31;20.10;99.90
13798;DHT22;6970;51.340;3.240;2023-05-07T08:09:59;20.10;99.90
13798;DHT22;6970;51.340;3.240;2023-05-07T08:12:29;20.10;99.90
13798;DHT22;6970;51.340;3.240;2023-05-07T08:14:59;20.10;99.90
13798;DHT22;6970;51.340;3.240;2023-05-07T08:17:28;20.10;99.90
13798;DHT22;6970;51.340;3.240;2023-05-07T08:19:56;20.00;99.90
13798;DHT22;6970;51.340;3.240;2023-05-07T08:22:26;20.00;99.90
13798;DHT22;6970;51.340;3.240;2023-05-07T08:24:53;20.00;99.90
13798;DHT22;6970;51.340;3.240;2023-05-07T08:27:21;19.90;99.90
13798;DHT22;6970;51.340;3.240;2023-05-07T08:29:51;19.90;99.90
13798;DHT22;6970;51.340;3.240;2023-05-07T08:32:18;19.90;99.90
13798;DHT22;6970;51.340;3.240;2023-05-07T08:34:47;19.90;99.90
13798;DHT22;6970;51.340;3.240;2023-05-07T08:37:17;19.90;99.90
13798;DHT22;6970;51.340;3.240;2023-05-07T08:39:44;19.90;99.90
13798;DHT22;6970;51.340;3.240;2023-05-07T08:42:14;19.80;99.90
13798;DHT22;6970;51.340;3.240;2023-05-07T08:44:45;19.70;99.90
13798;DHT22;6970;51.340;3.240;2023-05-07T08:47:13;19.70;99.90
13798;DHT22;6970;51.340;3.240;2023-05-07T08:49:41;19.60;99.90
13798;DHT22;6970;51.340;3.240;2023-05-07T08:52:12;19.60;99.90
13798;DHT22;6970;51.340;3.240;2023-05-07T08:54:43;19.60;99.90
13798;DHT22;6970;51.340;3.240;2023-05-07T08:57:13;19.60;99.90
13798;DHT22;6970;51.340;3.240;2023-05-07T08:59:43;19.60;99.90
13798;DHT22;6970;51.340;3.240;2023-05-07T09:02:12;19.60;99.90
13798;DHT22;6970;51.340;3.240;2023-05-07T09:04:40;19.60;99.90
13798;DHT22;6970;51.340;3.240;2023-05-07T09:07:07;19.60;99.90
13798;DHT22;6970;51.340;3.240;2023-05-07T09:09:37;19.50;99.90
13798;DHT22;6970;51.340;3.240;2023-05-07T09:12:04;19.50;99.90
13798;DHT22;6970;51.340;3.240;2023-05-07T09:14:34;19.50;99.90
13798;DHT22;6970;51.340;3.240;2023-05-07T09:17:02;19.40;99.90
13798;DHT22;6970;51.340;3.240;2023-05-07T09:19:33;19.40;99.90
13798;DHT22;6970;51.340;3.240;2023-05-07T09:22:04;19.40;99.90
13798;DHT22;6970;51.340;3.240;2023-05-07T09:24:34;19.40;99.90
13798;DHT22;6970;51.340;3.240;2023-05-07T09:27:10;19.30;99.90
13798;DHT22;6970;51.340;3.240;2023-05-07T09:29:43;19.30;99.90
13798;DHT22;6970;51.340;3.240;2023-05-07T09:32:12;19.30;99.90
13798;DHT22;6970;51.340;3.240;2023-05-07T09:34:41;19.30;99.90
13798;DHT22;6970;51.340;3.240;2023-05-07T09:37:08;19.30;99.90
13798;DHT22;6970;51.340;3.240;2023-05-07T09:39:46;19.30;99.90
13798;DHT22;6970;51.340;3.240;2023-05-07T09:42:16;19.30;99.90
13798;DHT22;6970;51.340;3.240;2023-05-07T09:44:52;19.20;99.90
13798;DHT22;6970;51.340;3.240;2023-05-07T09:47:20;19.20;99.90
13798;DHT22;6970;51.340;3.240;2023-05-07T09:49:56;19.20;99.90
13798;DHT22;6970;51.340;3.240;2023-05-07T09:52:29;19.20;99.90
13798;DHT22;6970;51.340;3.240;2023-05-07T09:55:02;19.10;99.90
13798;DHT22;6970;51.340;3.240;2023-05-07T09:57:32;19.10;99.90
13798;DHT22;6970;51.340;3.240;2023-05-07T10:00:04;19.00;99.90
13798;DHT22;6970;51.340;3.240;2023-05-07T10:02:35;19.00;99.90
13798;DHT22;6970;51.340;3.240;2023-05-07T10:05:05;19.00;99.90
13798;DHT22;6970;51.340;3.240;2023-05-07T10:07:32;19.00;99.90
13798;DHT22;6970;51.340;3.240;2023-05-07T10:10:00;19.00;99.90
13798;DHT22;6970;51.340;3.240;2023-05-07T10:12:28;18.90;99.90
13798;DHT22;6970;51.340;3.240;2023-05-07T10:14:56;18.90;99.90
13798;DHT22;6970;51.340;3.240;2023-05-07T10:17:26;18.90;99.90
13798;DHT22;6970;51.340;3.240;2023-05-07T10:19:56;18.80;99.90
13798;DHT22;6970;51.340;3.240;2023-05-07T10:22:24;18.80;99.90
13798;DHT22;6970;51.340;3.240;2023-05-07T10:24:56;18.80;99.90
13798;DHT22;6970;51.340;3.240;2023-05-07T10:27:25;18.70;99.90
13798;DHT22;6970;51.340;3.240;2023-05-07T10:32:55;18.70;99.90
13798;DHT22;6970;51.340;3.240;2023-05-07T10:35:27;18.70;99.90
13798;DHT22;6970;51.340;3.240;2023-05-07T10:37:58;18.80;99.90
13798;DHT22;6970;51.340;3.240;2023-05-07T10:40:28;18.90;99.90
13798;DHT22;6970;51.340;3.240;2023-05-07T10:43:00;18.90;99.90
13798;DHT22;6970;51.340;3.240;2023-05-07T10:45:29;19.00;99.90
13798;DHT22;6970;51.340;3.240;2023-05-07T10:48:11;19.10;99.90
13798;DHT22;6970;51.340;3.240;2023-05-07T10:51:19;19.20;99.90
13798;DHT22;6970;51.340;3.240;2023-05-07T10:54:17;19.20;99.90
13798;DHT22;6970;51.340;3.240;2023-05-07T10:56:47;19.30;99.90
13798;DHT22;6970;51.340;3.240;2023-05-07T10:59:34;19.30;99.90
13798;DHT22;6970;51.340;3.240;2023-05-07T11:02:07;19.30;99.90
13798;DHT22;6970;51.340;3.240;2023-05-07T11:04:36;19.40;99.90
13798;DHT22;6970;51.340;3.240;2023-05-07T11:15:10;19.40;99.90
13798;DHT22;6970;51.340;3.240;2023-05-07T11:17:55;19.30;99.90
13798;DHT22;6970;51.340;3.240;2023-05-07T11:26:08;19.10;99.90
13798;DHT22;6970;51.340;3.240;2023-05-07T11:28:42;19.10;99.90
13798;DHT22;6970;51.340;3.240;2023-05-07T11:31:12;19.20;99.90
13798;DHT22;6970;51.340;3.240;2023-05-07T11:33:43;19.20;99.90
13798;DHT22;6970;51.340;3.240;2023-05-07T11:36:10;19.30;99.90
13798;DHT22;6970;51.340;3.240;2023-05-07T11:38:40;19.40;99.90
13798;DHT22;6970;51.340;3.240;2023-05-07T11:41:07;19.50;99.90
13798;DHT22;6970;51.340;3.240;2023-05-07T11:43:37;19.60;99.90
13798;DHT22;6970;51.340;3.240;2023-05-07T11:46:09;19.70;99.90
13798;DHT22;6970;51.340;3.240;2023-05-07T11:48:36;19.80;99.90
13798;DHT22;6970;51.340;3.240;2023-05-07T11:51:06;19.80;99.90
13798;DHT22;6970;51.340;3.240;2023-05-07T11:53:39;19.80;99.90
13798;DHT22;6970;51.340;3.240;2023-05-07T11:56:11;19.90;99.90
13798;DHT22;6970;51.340;3.240;2023-05-07T11:58:42;20.20;99.90
13798;DHT22;6970;51.340;3.240;2023-05-07T12:01:11;20.40;99.90
13798;DHT22;6970;51.340;3.240;2023-05-07T12:03:44;20.70;99.90
13798;DHT22;6970;51.340;3.240;2023-05-07T12:06:16;20.90;99.90
13798;DHT22;6970;51.340;3.240;2023-05-07T12:08:46;21.10;99.90
13798;DHT22;6970;51.340;3.240;2023-05-07T12:11:23;21.20;99.90
13798;DHT22;6970;51.340;3.240;2023-05-07T12:13:53;21.30;99.90
13798;DHT22;6970;51.340;3.240;2023-05-07T12:16:25;21.30;99.90
13798;DHT22;6970;51.340;3.240;2023-05-07T12:18:55;21.40;99.90
13798;DHT22;6970;51.340;3.240;2023-05-07T12:21:25;21.50;99.90
13798;DHT22;6970;51.340;3.240;2023-05-07T12:23:52;21.50;99.90
13798;DHT22;6970;51.340;3.240;2023-05-07T12:26:20;21.60;99.90
13798;DHT22;6970;51.340;3.240;2023-05-07T12:28:48;21.70;99.90
13798;DHT22;6970;51.340;3.240;2023-05-07T12:31:21;21.70;99.90
13798;DHT22;6970;51.340;3.240;2023-05-07T12:33:50;21.70;99.90
13798;DHT22;6970;51.340;3.240;2023-05-07T12:36:19;21.80;99.90
13798;DHT22;6970;51.340;3.240;2023-05-07T12:38:50;22.00;99.90
13798;DHT22;6970;51.340;3.240;2023-05-07T12:41:19;22.10;99.90
13798;DHT22;6970;51.340;3.240;2023-05-07T12:43:56;22.20;99.90
13798;DHT22;6970;51.340;3.240;2023-05-07T12:46:27;22.40;99.90
13798;DHT22;6970;51.340;3.240;2023-05-07T12:48:57;22.60;99.90
13798;DHT22;6970;51.340;3.240;2023-05-07T12:51:25;22.80;99.90
13798;DHT22;6970;51.340;3.240;2023-05-07T12:53:56;22.80;99.90
13798;DHT22;6970;51.340;3.240;2023-05-07T12:56:24;22.90;99.90
13798;DHT22;6970;51.340;3.240;2023-05-07T12:58:51;22.90;99.90
13798;DHT22;6970;51.340;3.240;2023-05-07T13:01:20;22.90;99.90
13798;DHT22;6970;51.340;3.240;2023-05-07T13:03:49;23.00;99.90
13798;DHT22;6970;51.340;3.240;2023-05-07T13:06:19;23.10;99.90
13798;DHT22;6970;51.340;3.240;2023-05-07T13:08:47;23.40;99.90
13798;DHT22;6970;51.340;3.240;2023-05-07T13:11:15;23.80;99.90
13798;DHT22;6970;51.340;3.240;2023-05-07T13:13:46;24.10;99.90
13798;DHT22;6970;51.340;3.240;2023-05-07T13:16:13;24.20;99.90
13798;DHT22;6970;51.340;3.240;2023-05-07T13:18:41;24.00;99.90
13798;DHT22;6970;51.340;3.240;2023-05-07T13:21:12;23.80;99.90
13798;DHT22;6970;51.340;3.240;2023-05-07T13:23:41;23.70;99.90
13798;DHT22;6970;51.340;3.240;2023-05-07T13:26:10;23.70;99.90
13798;DHT22;6970;51.340;3.240;2023-05-07T13:28:55;23.70;99.90
13798;DHT22;6970;51.340;3.240;2023-05-07T13:31:25;23.50;99.90
13798;DHT22;6970;51.340;3.240;2023-05-07T13:33:52;23.40;99.90
13798;DHT22;6970;51.340;3.240;2023-05-07T13:36:25;23.30;99.90
13798;DHT22;6970;51.340;3.240;2023-05-07T13:38:54;23.30;99.90
13798;DHT22;6970;51.340;3.240;2023-05-07T13:41:21;23.30;99.90
13798;DHT22;6970;51.340;3.240;2023-05-07T13:43:48;23.30;99.90
13798;DHT22;6970;51.340;3.240;2023-05-07T13:46:18;23.50;99.90
13798;DHT22;6970;51.340;3.240;2023-05-07T13:48:45;23.70;99.90
13798;DHT22;6970;51.340;3.240;2023-05-07T13:51:12;23.70;99.90
13798;DHT22;6970;51.340;3.240;2023-05-07T13:53:39;23.80;99.90
13798;DHT22;6970;51.340;3.240;2023-05-07T13:56:09;23.80;99.90
13798;DHT22;6970;51.340;3.240;2023-05-07T13:58:36;23.80;99.90
13798;DHT22;6970;51.340;3.240;2023-05-07T14:01:14;23.80;99.90
13798;DHT22;6970;51.340;3.240;2023-05-07T14:03:43;23.90;99.90
13798;DHT22;6970;51.340;3.240;2023-05-07T14:06:11;24.00;99.90
13798;DHT22;6970;51.340;3.240;2023-05-07T14:08:38;24.20;99.90
13798;DHT22;6970;51.340;3.240;2023-05-07T14:11:08;24.30;99.90
13798;DHT22;6970;51.340;3.240;2023-05-07T14:13:38;24.20;99.90
13798;DHT22;6970;51.340;3.240;2023-05-07T14:16:08;24.00;99.90
13798;DHT22;6970;51.340;3.240;2023-05-07T14:18:35;23.90;99.90
13798;DHT22;6970;51.340;3.240;2023-05-07T14:21:04;23.80;99.90
13798;DHT22;6970;51.340;3.240;2023-05-07T14:23:36;23.70;99.90
13798;DHT22;6970;51.340;3.240;2023-05-07T14:26:09;23.50;99.90
13798;DHT22;6970;51.340;3.240;2023-05-07T14:28:49;23.50;99.90
13798;DHT22;6970;51.340;3.240;2023-05-07T14:31:19;23.50;99.90
13798;DHT22;6970;51.340;3.240;2023-05-07T14:33:50;23.50;99.90
13798;DHT22;6970;51.340;3.240;2023-05-07T14:36:20;23.60;99.90
13798;DHT22;6970;51.340;3.240;2023-05-07T14:38:53;23.70;99.90
13798;DHT22;6970;51.340;3.240;2023-05-07T14:41:24;23.70;99.90
13798;DHT22;6970;51.340;3.240;2023-05-07T14:43:53;23.70;99.90
13798;DHT22;6970;51.340;3.240;2023-05-07T14:46:23;23.40;99.90
13798;DHT22;6970;51.340;3.240;2023-05-07T14:48:54;23.20;99.90
13798;DHT22;6970;51.340;3.240;2023-05-07T14:51:24;23.00;99.90
13798;DHT22;6970;51.340;3.240;2023-05-07T14:53:53;22.80;99.90
13798;DHT22;6970;51.340;3.240;2023-05-07T14:56:22;22.60;99.90
13798;DHT22;6970;51.340;3.240;2023-05-07T14:58:49;22.40;99.90
13798;DHT22;6970;51.340;3.240;2023-05-07T15:01:20;22.30;99.90
13798;DHT22;6970;51.340;3.240;2023-05-07T15:03:49;22.20;99.90
13798;DHT22;6970;51.340;3.240;2023-05-07T15:06:24;22.20;99.90
13798;DHT22;6970;51.340;3.240;2023-05-07T15:08:51;22.30;99.90
13798;DHT22;6970;51.340;3.240;2023-05-07T15:11:18;22.20;99.90
13798;DHT22;6970;51.340;3.240;2023-05-07T15:13:51;22.20;99.90
13798;DHT22;6970;51.340;3.240;2023-05-07T15:16:24;22.20;99.90
13798;DHT22;6970;51.340;3.240;2023-05-07T15:18:52;22.20;99.90
13798;DHT22;6970;51.340;3.240;2023-05-07T15:21:20;22.20;99.90
13798;DHT22;6970;51.340;3.240;2023-05-07T15:23:49;22.30;99.90
13798;DHT22;6970;51.340;3.240;2023-05-07T15:26:20;22.30;99.90
13798;DHT22;6970;51.340;3.240;2023-05-07T15:28:49;22.30;99.90
13798;DHT22;6970;51.340;3.240;2023-05-07T15:31:18;22.30;99.90
13798;DHT22;6970;51.340;3.240;2023-05-07T15:33:45;22.30;99.90
13798;DHT22;6970;51.340;3.240;2023-05-07T15:36:16;22.20;99.90
13798;DHT22;6970;51.340;3.240;2023-05-07T15:38:43;22.20;99.90
13798;DHT22;6970;51.340;3.240;2023-05-07T15:41:12;22.00;99.90
13798;DHT22;6970;51.340;3.240;2023-05-07T15:43:47;22.00;99.90
13798;DHT22;6970;51.340;3.240;2023-05-07T15:46:24;21.90;99.90
13798;DHT22;6970;51.340;3.240;2023-05-07T15:48:53;21.90;99.90
13798;DHT22;6970;51.340;3.240;2023-05-07T15:51:20;21.90;99.90
13798;DHT22;6970;51.340;3.240;2023-05-07T15:53:50;21.80;99.90
13798;DHT22;6970;51.340;3.240;2023-05-07T15:56:22;21.70;99.90
13798;DHT22;6970;51.340;3.240;2023-05-07T15:58:52;21.50;99.90
13798;DHT22;6970;51.340;3.240;2023-05-07T16:01:22;21.30;99.90
13798;DHT22;6970;51.340;3.240;2023-05-07T16:03:55;21.20;99.90
13798;DHT22;6970;51.340;3.240;2023-05-07T16:06:25;21.10;99.90
13798;DHT22;6970;51.340;3.240;2023-05-07T16:08:53;20.90;99.90
13798;DHT22;6970;51.340;3.240;2023-05-07T16:11:20;20.80;99.90
13798;DHT22;6970;51.340;3.240;2023-05-07T16:13:47;20.60;99.90
13798;DHT22;6970;51.340;3.240;2023-05-07T16:16:16;20.60;99.90